SPU weather

Split Airport
Split, Split-Dalmatia County, Croatia

Public forecast

Using degrees Celsius for public forecast. Weather courtesy of forecast.io.

METAR (pilot weather report)

Retrieved 2019/05/24 18:30 UTC (0 seconds ago):

LDSP 241830Z VRB03KT CAVOK 21/11 Q1011 NOSIG

TAF (pilot weather forecast)

Retrieved 2019/05/24 18:36 UTC (0 seconds ago):

TAF LDSP 241732Z 2418/2518 31006KT CAVOK TX24/2512Z TN14/2504Z BECMG 2510/2512 23008KT BECMG 2515/2517 VRB02KT